sensor_id;sensor_type;location;lat;lon;timestamp;P1;durP1;ratioP1;P2;durP2;ratioP2
14247;SDS011;7208;49.826;6.004;2022-12-18T00:01:18;12.60;;;10.17;;
14247;SDS011;7208;49.826;6.004;2022-12-18T00:03:45;11.47;;;9.80;;
14247;SDS011;7208;49.826;6.004;2022-12-18T00:06:11;11.23;;;9.97;;
14247;SDS011;7208;49.826;6.004;2022-12-18T00:08:38;11.03;;;9.23;;
14247;SDS011;7208;49.826;6.004;2022-12-18T00:11:08;12.70;;;11.27;;
14247;SDS011;7208;49.826;6.004;2022-12-18T00:13:40;12.30;;;10.43;;
14247;SDS011;7208;49.826;6.004;2022-12-18T00:16:07;11.00;;;9.80;;
14247;SDS011;7208;49.826;6.004;2022-12-18T00:18:35;10.83;;;9.60;;
14247;SDS011;7208;49.826;6.004;2022-12-18T00:21:02;11.13;;;9.93;;
14247;SDS011;7208;49.826;6.004;2022-12-18T00:23:29;11.67;;;10.43;;
14247;SDS011;7208;49.826;6.004;2022-12-18T00:25:59;12.67;;;10.93;;
14247;SDS011;7208;49.826;6.004;2022-12-18T00:28:25;13.30;;;11.90;;
14247;SDS011;7208;49.826;6.004;2022-12-18T00:30:59;12.17;;;10.93;;
14247;SDS011;7208;49.826;6.004;2022-12-18T00:33:26;10.13;;;9.13;;
14247;SDS011;7208;49.826;6.004;2022-12-18T00:35:52;9.70;;;8.57;;
14247;SDS011;7208;49.826;6.004;2022-12-18T00:38:17;7.97;;;7.17;;
14247;SDS011;7208;49.826;6.004;2022-12-18T00:40:43;8.67;;;7.83;;
14247;SDS011;7208;49.826;6.004;2022-12-18T00:43:09;9.37;;;7.90;;
14247;SDS011;7208;49.826;6.004;2022-12-18T00:45:34;9.07;;;7.87;;
14247;SDS011;7208;49.826;6.004;2022-12-18T00:48:00;15.43;;;11.67;;
14247;SDS011;7208;49.826;6.004;2022-12-18T00:50:26;15.40;;;11.73;;
14247;SDS011;7208;49.826;6.004;2022-12-18T00:52:52;18.87;;;12.97;;
14247;SDS011;7208;49.826;6.004;2022-12-18T00:55:18;15.33;;;11.27;;
14247;SDS011;7208;49.826;6.004;2022-12-18T00:57:44;16.43;;;11.27;;
14247;SDS011;7208;49.826;6.004;2022-12-18T01:00:10;17.03;;;11.77;;
14247;SDS011;7208;49.826;6.004;2022-12-18T01:02:38;11.97;;;9.50;;
14247;SDS011;7208;49.826;6.004;2022-12-18T01:05:04;12.83;;;10.10;;
14247;SDS011;7208;49.826;6.004;2022-12-18T01:07:30;18.13;;;10.93;;
14247;SDS011;7208;49.826;6.004;2022-12-18T01:09:56;16.60;;;10.93;;
14247;SDS011;7208;49.826;6.004;2022-12-18T01:12:22;15.33;;;10.20;;
14247;SDS011;7208;49.826;6.004;2022-12-18T01:14:48;10.80;;;9.60;;
14247;SDS011;7208;49.826;6.004;2022-12-18T01:17:13;12.53;;;9.67;;
14247;SDS011;7208;49.826;6.004;2022-12-18T01:19:39;10.40;;;9.30;;
14247;SDS011;7208;49.826;6.004;2022-12-18T01:22:05;12.20;;;9.02;;
14247;SDS011;7208;49.826;6.004;2022-12-18T01:24:31;9.50;;;8.60;;
14247;SDS011;7208;49.826;6.004;2022-12-18T01:26:56;8.93;;;8.03;;
14247;SDS011;7208;49.826;6.004;2022-12-18T01:29:23;8.90;;;8.00;;
14247;SDS011;7208;49.826;6.004;2022-12-18T01:31:48;11.73;;;8.97;;
14247;SDS011;7208;49.826;6.004;2022-12-18T01:34:14;10.17;;;9.10;;
14247;SDS011;7208;49.826;6.004;2022-12-18T01:36:39;11.27;;;10.07;;
14247;SDS011;7208;49.826;6.004;2022-12-18T01:39:06;20.97;;;16.10;;
14247;SDS011;7208;49.826;6.004;2022-12-18T01:41:35;53.43;;;29.53;;
14247;SDS011;7208;49.826;6.004;2022-12-18T01:47:39;21.57;;;14.27;;
14247;SDS011;7208;49.826;6.004;2022-12-18T01:52:45;18.47;;;12.70;;
14247;SDS011;7208;49.826;6.004;2022-12-18T01:55:13;21.03;;;13.57;;
14247;SDS011;7208;49.826;6.004;2022-12-18T01:57:42;21.00;;;15.17;;
14247;SDS011;7208;49.826;6.004;2022-12-18T02:00:09;66.27;;;29.60;;
14247;SDS011;7208;49.826;6.004;2022-12-18T02:02:37;36.77;;;19.00;;
14247;SDS011;7208;49.826;6.004;2022-12-18T02:05:03;53.83;;;26.33;;
14247;SDS011;7208;49.826;6.004;2022-12-18T02:10:48;23.90;;;16.33;;
14247;SDS011;7208;49.826;6.004;2022-12-18T02:15:18;28.27;;;20.23;;
14247;SDS011;7208;49.826;6.004;2022-12-18T02:17:54;13.27;;;11.57;;
14247;SDS011;7208;49.826;6.004;2022-12-18T02:20:35;9.40;;;8.43;;
14247;SDS011;7208;49.826;6.004;2022-12-18T02:23:10;9.60;;;8.40;;
14247;SDS011;7208;49.826;6.004;2022-12-18T02:28:31;7.90;;;7.13;;
14247;SDS011;7208;49.826;6.004;2022-12-18T02:31:01;8.33;;;7.47;;
14247;SDS011;7208;49.826;6.004;2022-12-18T02:33:29;10.67;;;8.90;;
14247;SDS011;7208;49.826;6.004;2022-12-18T02:35:57;11.67;;;9.47;;
14247;SDS011;7208;49.826;6.004;2022-12-18T02:38:25;10.87;;;9.77;;
14247;SDS011;7208;49.826;6.004;2022-12-18T02:40:51;10.13;;;9.03;;
14247;SDS011;7208;49.826;6.004;2022-12-18T02:43:19;8.27;;;7.40;;
14247;SDS011;7208;49.826;6.004;2022-12-18T02:45:49;10.37;;;8.67;;
14247;SDS011;7208;49.826;6.004;2022-12-18T02:48:22;8.67;;;7.30;;
14247;SDS011;7208;49.826;6.004;2022-12-18T02:56:20;11.00;;;9.27;;
14247;SDS011;7208;49.826;6.004;2022-12-18T03:01:34;8.50;;;7.60;;
14247;SDS011;7208;49.826;6.004;2022-12-18T03:04:04;9.77;;;8.37;;
14247;SDS011;7208;49.826;6.004;2022-12-18T03:06:55;10.20;;;9.20;;
14247;SDS011;7208;49.826;6.004;2022-12-18T03:09:26;29.27;;;19.50;;
14247;SDS011;7208;49.826;6.004;2022-12-18T03:15:08;19.17;;;13.33;;
14247;SDS011;7208;49.826;6.004;2022-12-18T03:17:40;11.57;;;9.57;;
14247;SDS011;7208;49.826;6.004;2022-12-18T03:20:12;10.13;;;9.03;;
14247;SDS011;7208;49.826;6.004;2022-12-18T03:22:39;10.07;;;8.67;;
14247;SDS011;7208;49.826;6.004;2022-12-18T03:25:09;8.90;;;8.00;;
14247;SDS011;7208;49.826;6.004;2022-12-18T03:27:38;9.17;;;8.27;;
14247;SDS011;7208;49.826;6.004;2022-12-18T03:30:09;12.43;;;9.73;;
14247;SDS011;7208;49.826;6.004;2022-12-18T03:32:46;9.83;;;8.83;;
14247;SDS011;7208;49.826;6.004;2022-12-18T03:35:25;9.77;;;8.83;;
14247;SDS011;7208;49.826;6.004;2022-12-18T03:37:54;10.03;;;8.87;;
14247;SDS011;7208;49.826;6.004;2022-12-18T03:40:21;10.57;;;9.13;;
14247;SDS011;7208;49.826;6.004;2022-12-18T03:43:08;11.27;;;8.73;;
14247;SDS011;7208;49.826;6.004;2022-12-18T03:45:53;11.93;;;9.40;;
14247;SDS011;7208;49.826;6.004;2022-12-18T03:48:31;13.47;;;10.67;;
14247;SDS011;7208;49.826;6.004;2022-12-18T03:51:05;15.17;;;11.80;;
14247;SDS011;7208;49.826;6.004;2022-12-18T03:56:06;13.50;;;12.03;;
14247;SDS011;7208;49.826;6.004;2022-12-18T03:58:34;11.47;;;10.30;;
14247;SDS011;7208;49.826;6.004;2022-12-18T04:01:02;10.27;;;9.20;;
14247;SDS011;7208;49.826;6.004;2022-12-18T04:03:31;10.97;;;9.87;;
14247;SDS011;7208;49.826;6.004;2022-12-18T04:05:58;10.47;;;9.43;;
14247;SDS011;7208;49.826;6.004;2022-12-18T04:08:25;10.10;;;9.10;;
14247;SDS011;7208;49.826;6.004;2022-12-18T04:10:52;10.03;;;9.03;;
14247;SDS011;7208;49.826;6.004;2022-12-18T04:13:53;12.47;;;10.13;;
14247;SDS011;7208;49.826;6.004;2022-12-18T04:16:09;9.93;;;8.93;;
14247;SDS011;7208;49.826;6.004;2022-12-18T04:18:35;9.73;;;8.73;;
14247;SDS011;7208;49.826;6.004;2022-12-18T04:21:01;10.50;;;9.37;;
14247;SDS011;7208;49.826;6.004;2022-12-18T04:23:27;11.27;;;10.07;;
14247;SDS011;7208;49.826;6.004;2022-12-18T04:25:53;10.47;;;9.47;;
14247;SDS011;7208;49.826;6.004;2022-12-18T04:28:19;9.73;;;8.67;;
14247;SDS011;7208;49.826;6.004;2022-12-18T04:30:44;9.67;;;8.77;;
14247;SDS011;7208;49.826;6.004;2022-12-18T04:33:13;10.00;;;9.00;;
14247;SDS011;7208;49.826;6.004;2022-12-18T04:35:42;10.20;;;9.20;;
14247;SDS011;7208;49.826;6.004;2022-12-18T04:38:08;10.80;;;9.27;;
14247;SDS011;7208;49.826;6.004;2022-12-18T04:40:35;11.53;;;9.67;;
14247;SDS011;7208;49.826;6.004;2022-12-18T04:43:01;10.43;;;9.43;;
14247;SDS011;7208;49.826;6.004;2022-12-18T04:45:27;11.07;;;9.97;;
14247;SDS011;7208;49.826;6.004;2022-12-18T04:47:53;10.87;;;9.77;;
14247;SDS011;7208;49.826;6.004;2022-12-18T04:50:18;11.10;;;9.23;;
14247;SDS011;7208;49.826;6.004;2022-12-18T04:52:44;12.07;;;8.87;;
14247;SDS011;7208;49.826;6.004;2022-12-18T04:55:10;9.60;;;8.33;;
14247;SDS011;7208;49.826;6.004;2022-12-18T04:57:35;9.77;;;8.73;;
14247;SDS011;7208;49.826;6.004;2022-12-18T05:00:01;8.87;;;8.07;;
14247;SDS011;7208;49.826;6.004;2022-12-18T05:02:27;9.33;;;8.43;;
14247;SDS011;7208;49.826;6.004;2022-12-18T05:04:53;9.87;;;8.83;;
14247;SDS011;7208;49.826;6.004;2022-12-18T05:07:18;10.53;;;9.53;;
14247;SDS011;7208;49.826;6.004;2022-12-18T05:09:44;9.87;;;8.80;;
14247;SDS011;7208;49.826;6.004;2022-12-18T05:12:10;10.70;;;9.43;;
14247;SDS011;7208;49.826;6.004;2022-12-18T05:14:35;9.30;;;8.37;;
14247;SDS011;7208;49.826;6.004;2022-12-18T05:17:01;10.03;;;9.03;;
14247;SDS011;7208;49.826;6.004;2022-12-18T05:19:27;10.60;;;9.37;;
14247;SDS011;7208;49.826;6.004;2022-12-18T05:21:52;11.47;;;9.90;;
14247;SDS011;7208;49.826;6.004;2022-12-18T05:24:18;12.00;;;9.23;;
14247;SDS011;7208;49.826;6.004;2022-12-18T05:26:44;10.63;;;9.53;;
14247;SDS011;7208;49.826;6.004;2022-12-18T05:29:09;9.70;;;8.80;;
14247;SDS011;7208;49.826;6.004;2022-12-18T05:31:37;10.47;;;8.53;;
14247;SDS011;7208;49.826;6.004;2022-12-18T05:34:04;9.83;;;8.63;;
14247;SDS011;7208;49.826;6.004;2022-12-18T05:36:30;9.17;;;8.23;;
14247;SDS011;7208;49.826;6.004;2022-12-18T05:38:55;9.63;;;8.70;;
14247;SDS011;7208;49.826;6.004;2022-12-18T05:41:21;9.60;;;8.53;;
14247;SDS011;7208;49.826;6.004;2022-12-18T05:43:47;9.57;;;8.20;;
14247;SDS011;7208;49.826;6.004;2022-12-18T05:46:13;10.07;;;8.93;;
14247;SDS011;7208;49.826;6.004;2022-12-18T05:48:41;10.30;;;8.60;;
14247;SDS011;7208;49.826;6.004;2022-12-18T05:51:09;9.73;;;8.57;;
14247;SDS011;7208;49.826;6.004;2022-12-18T05:53:36;10.60;;;8.87;;
14247;SDS011;7208;49.826;6.004;2022-12-18T05:56:03;9.77;;;8.77;;
14247;SDS011;7208;49.826;6.004;2022-12-18T05:58:31;9.97;;;8.70;;
14247;SDS011;7208;49.826;6.004;2022-12-18T06:00:57;9.63;;;8.73;;
14247;SDS011;7208;49.826;6.004;2022-12-18T06:03:23;8.90;;;7.87;;
14247;SDS011;7208;49.826;6.004;2022-12-18T06:05:49;9.37;;;8.37;;
14247;SDS011;7208;49.826;6.004;2022-12-18T06:08:15;10.40;;;9.23;;
14247;SDS011;7208;49.826;6.004;2022-12-18T06:10:41;10.30;;;9.30;;
14247;SDS011;7208;49.826;6.004;2022-12-18T06:13:07;12.57;;;10.73;;
14247;SDS011;7208;49.826;6.004;2022-12-18T06:15:35;11.07;;;9.97;;
14247;SDS011;7208;49.826;6.004;2022-12-18T06:18:02;10.63;;;9.57;;
14247;SDS011;7208;49.826;6.004;2022-12-18T06:20:27;10.73;;;9.50;;
14247;SDS011;7208;49.826;6.004;2022-12-18T06:22:53;11.53;;;10.20;;
14247;SDS011;7208;49.826;6.004;2022-12-18T06:25:19;11.60;;;9.87;;
14247;SDS011;7208;49.826;6.004;2022-12-18T06:27:46;11.00;;;9.90;;
14247;SDS011;7208;49.826;6.004;2022-12-18T06:30:13;12.17;;;9.50;;
14247;SDS011;7208;49.826;6.004;2022-12-18T06:32:39;10.93;;;9.43;;
14247;SDS011;7208;49.826;6.004;2022-12-18T06:35:04;11.97;;;9.50;;
14247;SDS011;7208;49.826;6.004;2022-12-18T06:37:31;10.93;;;9.83;;
14247;SDS011;7208;49.826;6.004;2022-12-18T06:39:56;10.47;;;9.37;;
14247;SDS011;7208;49.826;6.004;2022-12-18T06:42:22;12.30;;;9.90;;
14247;SDS011;7208;49.826;6.004;2022-12-18T06:44:50;11.30;;;10.10;;
14247;SDS011;7208;49.826;6.004;2022-12-18T06:47:15;11.43;;;9.10;;
14247;SDS011;7208;49.826;6.004;2022-12-18T06:49:41;9.77;;;8.77;;
14247;SDS011;7208;49.826;6.004;2022-12-18T06:52:07;11.53;;;9.70;;
14247;SDS011;7208;49.826;6.004;2022-12-18T06:54:33;12.07;;;10.70;;
14247;SDS011;7208;49.826;6.004;2022-12-18T06:57:02;10.53;;;9.13;;
14247;SDS011;7208;49.826;6.004;2022-12-18T06:59:28;10.33;;;9.30;;
14247;SDS011;7208;49.826;6.004;2022-12-18T07:01:54;11.73;;;9.83;;
14247;SDS011;7208;49.826;6.004;2022-12-18T07:04:19;12.20;;;10.40;;
14247;SDS011;7208;49.826;6.004;2022-12-18T07:06:45;11.70;;;10.60;;
14247;SDS011;7208;49.826;6.004;2022-12-18T07:09:11;11.87;;;9.60;;
14247;SDS011;7208;49.826;6.004;2022-12-18T07:11:36;10.90;;;9.70;;
14247;SDS011;7208;49.826;6.004;2022-12-18T07:14:02;11.33;;;9.57;;
14247;SDS011;7208;49.826;6.004;2022-12-18T07:16:28;12.63;;;10.50;;
14247;SDS011;7208;49.826;6.004;2022-12-18T07:18:54;13.30;;;11.40;;
14247;SDS011;7208;49.826;6.004;2022-12-18T07:21:21;12.37;;;10.93;;
14247;SDS011;7208;49.826;6.004;2022-12-18T07:23:47;11.90;;;10.70;;
14247;SDS011;7208;49.826;6.004;2022-12-18T07:26:13;12.67;;;11.43;;
14247;SDS011;7208;49.826;6.004;2022-12-18T07:28:41;13.53;;;11.67;;
14247;SDS011;7208;49.826;6.004;2022-12-18T07:31:08;16.60;;;12.17;;
14247;SDS011;7208;49.826;6.004;2022-12-18T07:33:35;15.63;;;12.17;;
14247;SDS011;7208;49.826;6.004;2022-12-18T07:36:02;14.57;;;13.03;;
14247;SDS011;7208;49.826;6.004;2022-12-18T07:38:29;17.03;;;14.17;;
14247;SDS011;7208;49.826;6.004;2022-12-18T07:41:06;14.10;;;12.30;;
14247;SDS011;7208;49.826;6.004;2022-12-18T07:43:34;15.37;;;12.67;;
14247;SDS011;7208;49.826;6.004;2022-12-18T07:46:00;14.53;;;12.67;;
14247;SDS011;7208;49.826;6.004;2022-12-18T07:48:27;14.67;;;12.57;;
14247;SDS011;7208;49.826;6.004;2022-12-18T07:50:53;16.17;;;13.97;;
14247;SDS011;7208;49.826;6.004;2022-12-18T07:53:22;14.80;;;13.27;;
14247;SDS011;7208;49.826;6.004;2022-12-18T07:55:48;16.70;;;13.53;;
14247;SDS011;7208;49.826;6.004;2022-12-18T07:58:14;14.20;;;12.43;;
14247;SDS011;7208;49.826;6.004;2022-12-18T08:00:39;13.30;;;12.00;;
14247;SDS011;7208;49.826;6.004;2022-12-18T08:03:05;13.23;;;11.80;;
14247;SDS011;7208;49.826;6.004;2022-12-18T08:05:30;14.07;;;12.23;;
14247;SDS011;7208;49.826;6.004;2022-12-18T08:07:56;14.73;;;12.50;;
14247;SDS011;7208;49.826;6.004;2022-12-18T08:10:23;14.27;;;11.93;;
14247;SDS011;7208;49.826;6.004;2022-12-18T08:12:49;14.73;;;13.00;;
14247;SDS011;7208;49.826;6.004;2022-12-18T08:15:16;19.70;;;16.00;;
14247;SDS011;7208;49.826;6.004;2022-12-18T08:17:41;18.70;;;15.60;;
14247;SDS011;7208;49.826;6.004;2022-12-18T08:20:07;15.73;;;14.20;;
14247;SDS011;7208;49.826;6.004;2022-12-18T08:22:34;14.80;;;13.30;;
14247;SDS011;7208;49.826;6.004;2022-12-18T08:25:00;32.90;;;27.87;;
14247;SDS011;7208;49.826;6.004;2022-12-18T08:27:26;24.63;;;19.07;;
14247;SDS011;7208;49.826;6.004;2022-12-18T08:29:52;23.30;;;19.40;;
14247;SDS011;7208;49.826;6.004;2022-12-18T08:32:17;22.20;;;17.97;;
14247;SDS011;7208;49.826;6.004;2022-12-18T08:34:43;23.63;;;17.23;;
14247;SDS011;7208;49.826;6.004;2022-12-18T08:37:09;19.53;;;17.50;;
14247;SDS011;7208;49.826;6.004;2022-12-18T08:39:34;17.67;;;14.57;;
14247;SDS011;7208;49.826;6.004;2022-12-18T08:42:00;18.93;;;15.93;;
14247;SDS011;7208;49.826;6.004;2022-12-18T08:44:44;21.57;;;19.20;;
14247;SDS011;7208;49.826;6.004;2022-12-18T08:47:10;24.90;;;20.87;;
14247;SDS011;7208;49.826;6.004;2022-12-18T08:49:35;24.57;;;19.97;;
14247;SDS011;7208;49.826;6.004;2022-12-18T08:52:01;17.23;;;15.23;;
14247;SDS011;7208;49.826;6.004;2022-12-18T08:54:27;16.90;;;15.13;;
14247;SDS011;7208;49.826;6.004;2022-12-18T08:56:54;20.07;;;16.37;;
14247;SDS011;7208;49.826;6.004;2022-12-18T08:59:20;17.93;;;16.10;;
14247;SDS011;7208;49.826;6.004;2022-12-18T09:01:46;22.03;;;18.10;;
14247;SDS011;7208;49.826;6.004;2022-12-18T09:04:12;30.67;;;21.03;;
14247;SDS011;7208;49.826;6.004;2022-12-18T09:06:39;29.53;;;21.40;;
14247;SDS011;7208;49.826;6.004;2022-12-18T09:09:05;32.00;;;21.43;;
14247;SDS011;7208;49.826;6.004;2022-12-18T09:11:31;31.57;;;22.10;;
14247;SDS011;7208;49.826;6.004;2022-12-18T09:13:58;22.10;;;18.20;;
14247;SDS011;7208;49.826;6.004;2022-12-18T09:16:26;26.00;;;19.33;;
14247;SDS011;7208;49.826;6.004;2022-12-18T09:18:53;22.93;;;17.37;;
14247;SDS011;7208;49.826;6.004;2022-12-18T09:21:24;23.67;;;18.37;;
14247;SDS011;7208;49.826;6.004;2022-12-18T09:23:50;24.53;;;18.87;;
14247;SDS011;7208;49.826;6.004;2022-12-18T09:26:16;22.20;;;18.47;;
14247;SDS011;7208;49.826;6.004;2022-12-18T09:28:42;20.20;;;18.07;;
14247;SDS011;7208;49.826;6.004;2022-12-18T09:31:08;19.80;;;17.33;;
14247;SDS011;7208;49.826;6.004;2022-12-18T09:33:36;18.53;;;16.43;;
14247;SDS011;7208;49.826;6.004;2022-12-18T09:36:03;19.57;;;16.30;;
14247;SDS011;7208;49.826;6.004;2022-12-18T09:38:30;18.90;;;16.43;;
14247;SDS011;7208;49.826;6.004;2022-12-18T09:40:57;20.00;;;16.00;;
14247;SDS011;7208;49.826;6.004;2022-12-18T09:43:51;20.67;;;17.17;;
14247;SDS011;7208;49.826;6.004;2022-12-18T09:46:25;19.37;;;17.30;;
14247;SDS011;7208;49.826;6.004;2022-12-18T09:49:02;19.87;;;17.57;;
14247;SDS011;7208;49.826;6.004;2022-12-18T09:51:46;19.00;;;17.00;;
14247;SDS011;7208;49.826;6.004;2022-12-18T09:54:20;18.10;;;16.07;;
14247;SDS011;7208;49.826;6.004;2022-12-18T09:56:54;20.70;;;18.30;;
14247;SDS011;7208;49.826;6.004;2022-12-18T09:59:21;30.50;;;22.20;;
14247;SDS011;7208;49.826;6.004;2022-12-18T10:01:50;25.13;;;21.80;;
14247;SDS011;7208;49.826;6.004;2022-12-18T10:04:16;22.20;;;19.87;;
14247;SDS011;7208;49.826;6.004;2022-12-18T10:12:08;19.57;;;16.97;;
14247;SDS011;7208;49.826;6.004;2022-12-18T10:20:44;23.73;;;19.37;;
14247;SDS011;7208;49.826;6.004;2022-12-18T10:26:12;24.03;;;19.33;;
14247;SDS011;7208;49.826;6.004;2022-12-18T10:28:38;25.83;;;19.43;;
14247;SDS011;7208;49.826;6.004;2022-12-18T10:31:06;21.43;;;18.80;;
14247;SDS011;7208;49.826;6.004;2022-12-18T10:33:37;22.13;;;19.27;;
14247;SDS011;7208;49.826;6.004;2022-12-18T10:36:03;18.23;;;15.80;;
14247;SDS011;7208;49.826;6.004;2022-12-18T10:38:31;23.80;;;18.87;;
14247;SDS011;7208;49.826;6.004;2022-12-18T10:41:22;24.37;;;19.43;;
14247;SDS011;7208;49.826;6.004;2022-12-18T10:44:10;24.33;;;18.87;;
14247;SDS011;7208;49.826;6.004;2022-12-18T10:46:36;24.23;;;18.93;;
14247;SDS011;7208;49.826;6.004;2022-12-18T10:49:02;23.27;;;18.73;;
14247;SDS011;7208;49.826;6.004;2022-12-18T10:51:30;25.77;;;18.50;;
14247;SDS011;7208;49.826;6.004;2022-12-18T10:54:02;24.97;;;19.17;;
14247;SDS011;7208;49.826;6.004;2022-12-18T10:56:38;21.80;;;17.67;;
14247;SDS011;7208;49.826;6.004;2022-12-18T10:59:04;23.60;;;18.77;;
14247;SDS011;7208;49.826;6.004;2022-12-18T11:01:48;24.33;;;19.13;;
14247;SDS011;7208;49.826;6.004;2022-12-18T11:04:27;34.43;;;26.30;;
14247;SDS011;7208;49.826;6.004;2022-12-18T11:07:03;23.20;;;20.00;;
14247;SDS011;7208;49.826;6.004;2022-12-18T11:09:40;21.17;;;15.67;;
14247;SDS011;7208;49.826;6.004;2022-12-18T11:12:16;20.57;;;16.57;;
14247;SDS011;7208;49.826;6.004;2022-12-18T11:14:46;24.17;;;18.33;;
14247;SDS011;7208;49.826;6.004;2022-12-18T11:19:51;23.40;;;18.63;;
14247;SDS011;7208;49.826;6.004;2022-12-18T11:22:33;21.63;;;16.60;;
14247;SDS011;7208;49.826;6.004;2022-12-18T11:25:05;19.57;;;15.47;;
14247;SDS011;7208;49.826;6.004;2022-12-18T11:27:41;24.03;;;17.10;;
14247;SDS011;7208;49.826;6.004;2022-12-18T11:32:47;20.67;;;15.90;;
14247;SDS011;7208;49.826;6.004;2022-12-18T11:38:02;21.43;;;17.17;;
14247;SDS011;7208;49.826;6.004;2022-12-18T11:40:42;20.30;;;16.80;;
14247;SDS011;7208;49.826;6.004;2022-12-18T11:43:13;17.27;;;14.40;;
14247;SDS011;7208;49.826;6.004;2022-12-18T11:45:52;21.03;;;16.47;;
14247;SDS011;7208;49.826;6.004;2022-12-18T11:50:53;22.13;;;16.00;;
14247;SDS011;7208;49.826;6.004;2022-12-18T11:53:24;23.00;;;16.60;;
14247;SDS011;7208;49.826;6.004;2022-12-18T11:55:56;19.77;;;16.00;;
14247;SDS011;7208;49.826;6.004;2022-12-18T12:03:59;17.60;;;15.07;;
14247;SDS011;7208;49.826;6.004;2022-12-18T12:10:04;18.53;;;14.17;;
14247;SDS011;7208;49.826;6.004;2022-12-18T12:15:44;26.00;;;20.07;;
14247;SDS011;7208;49.826;6.004;2022-12-18T12:23:46;23.37;;;16.73;;
14247;SDS011;7208;49.826;6.004;2022-12-18T12:26:52;26.27;;;18.00;;
14247;SDS011;7208;49.826;6.004;2022-12-18T12:32:13;20.77;;;15.87;;
14247;SDS011;7208;49.826;6.004;2022-12-18T12:40:24;19.03;;;13.30;;
14247;SDS011;7208;49.826;6.004;2022-12-18T12:42:57;17.70;;;12.97;;
14247;SDS011;7208;49.826;6.004;2022-12-18T12:45:44;17.20;;;13.13;;
14247;SDS011;7208;49.826;6.004;2022-12-18T12:48:37;15.47;;;11.73;;
14247;SDS011;7208;49.826;6.004;2022-12-18T12:54:04;15.87;;;13.33;;
14247;SDS011;7208;49.826;6.004;2022-12-18T12:56:38;19.40;;;14.87;;
14247;SDS011;7208;49.826;6.004;2022-12-18T13:07:56;22.07;;;17.40;;
14247;SDS011;7208;49.826;6.004;2022-12-18T13:10:31;18.23;;;12.93;;
14247;SDS011;7208;49.826;6.004;2022-12-18T13:18:33;18.50;;;13.23;;
14247;SDS011;7208;49.826;6.004;2022-12-18T13:36:25;14.07;;;11.43;;
14247;SDS011;7208;49.826;6.004;2022-12-18T13:39:09;18.97;;;13.03;;
14247;SDS011;7208;49.826;6.004;2022-12-18T13:41:51;16.43;;;12.37;;
14247;SDS011;7208;49.826;6.004;2022-12-18T13:44:26;16.03;;;12.40;;
14247;SDS011;7208;49.826;6.004;2022-12-18T13:47:01;17.90;;;12.13;;
14247;SDS011;7208;49.826;6.004;2022-12-18T13:52:16;19.40;;;13.63;;
14247;SDS011;7208;49.826;6.004;2022-12-18T13:54:45;17.97;;;12.63;;
14247;SDS011;7208;49.826;6.004;2022-12-18T13:57:35;18.40;;;12.57;;
14247;SDS011;7208;49.826;6.004;2022-12-18T14:02:51;19.00;;;12.50;;
14247;SDS011;7208;49.826;6.004;2022-12-18T14:05:28;20.17;;;11.97;;
14247;SDS011;7208;49.826;6.004;2022-12-18T14:07:59;20.27;;;14.30;;
14247;SDS011;7208;49.826;6.004;2022-12-18T14:10:46;26.07;;;14.50;;
14247;SDS011;7208;49.826;6.004;2022-12-18T14:13:56;24.70;;;15.23;;
14247;SDS011;7208;49.826;6.004;2022-12-18T14:16:06;16.57;;;11.30;;
14247;SDS011;7208;49.826;6.004;2022-12-18T14:21:25;20.13;;;13.20;;
14247;SDS011;7208;49.826;6.004;2022-12-18T14:26:33;25.23;;;13.70;;
14247;SDS011;7208;49.826;6.004;2022-12-18T14:28:59;21.10;;;14.17;;
14247;SDS011;7208;49.826;6.004;2022-12-18T14:31:42;24.60;;;15.67;;
14247;SDS011;7208;49.826;6.004;2022-12-18T14:34:14;20.93;;;12.30;;
14247;SDS011;7208;49.826;6.004;2022-12-18T14:36:53;24.67;;;13.43;;
14247;SDS011;7208;49.826;6.004;2022-12-18T14:39:20;22.80;;;12.20;;
14247;SDS011;7208;49.826;6.004;2022-12-18T14:41:48;23.93;;;14.23;;
14247;SDS011;7208;49.826;6.004;2022-12-18T14:44:14;24.47;;;13.47;;
14247;SDS011;7208;49.826;6.004;2022-12-18T14:46:41;18.30;;;13.73;;
14247;SDS011;7208;49.826;6.004;2022-12-18T14:49:23;23.30;;;13.80;;
14247;SDS011;7208;49.826;6.004;2022-12-18T14:51:56;21.13;;;13.30;;
14247;SDS011;7208;49.826;6.004;2022-12-18T14:54:26;24.43;;;13.67;;
14247;SDS011;7208;49.826;6.004;2022-12-18T14:59:26;23.33;;;13.60;;
14247;SDS011;7208;49.826;6.004;2022-12-18T15:07:42;25.50;;;16.13;;
14247;SDS011;7208;49.826;6.004;2022-12-18T15:12:44;21.13;;;13.43;;
14247;SDS011;7208;49.826;6.004;2022-12-18T15:20:44;23.03;;;13.83;;
14247;SDS011;7208;49.826;6.004;2022-12-18T15:23:21;28.80;;;14.20;;
14247;SDS011;7208;49.826;6.004;2022-12-18T15:28:32;25.93;;;16.03;;
14247;SDS011;7208;49.826;6.004;2022-12-18T15:33:40;22.37;;;12.77;;
14247;SDS011;7208;49.826;6.004;2022-12-18T15:36:09;26.07;;;15.90;;
14247;SDS011;7208;49.826;6.004;2022-12-18T15:38:37;23.63;;;15.53;;
14247;SDS011;7208;49.826;6.004;2022-12-18T15:41:02;25.50;;;13.47;;
14247;SDS011;7208;49.826;6.004;2022-12-18T15:43:28;23.97;;;13.67;;
14247;SDS011;7208;49.826;6.004;2022-12-18T15:48:26;24.83;;;14.43;;
14247;SDS011;7208;49.826;6.004;2022-12-18T15:50:53;30.17;;;15.13;;
14247;SDS011;7208;49.826;6.004;2022-12-18T15:53:22;23.33;;;14.77;;
14247;SDS011;7208;49.826;6.004;2022-12-18T15:55:49;22.13;;;15.53;;
14247;SDS011;7208;49.826;6.004;2022-12-18T15:58:33;26.47;;;16.10;;
14247;SDS011;7208;49.826;6.004;2022-12-18T16:00:59;28.87;;;16.10;;
14247;SDS011;7208;49.826;6.004;2022-12-18T16:03:25;28.70;;;15.80;;
14247;SDS011;7208;49.826;6.004;2022-12-18T16:05:51;26.70;;;16.97;;
14247;SDS011;7208;49.826;6.004;2022-12-18T16:08:17;24.13;;;14.93;;
14247;SDS011;7208;49.826;6.004;2022-12-18T16:10:42;29.77;;;16.03;;
14247;SDS011;7208;49.826;6.004;2022-12-18T16:13:11;28.23;;;15.07;;
14247;SDS011;7208;49.826;6.004;2022-12-18T16:15:39;25.10;;;15.27;;
14247;SDS011;7208;49.826;6.004;2022-12-18T16:18:05;28.13;;;16.07;;
14247;SDS011;7208;49.826;6.004;2022-12-18T16:20:30;27.30;;;15.67;;
14247;SDS011;7208;49.826;6.004;2022-12-18T16:22:56;31.10;;;16.37;;
14247;SDS011;7208;49.826;6.004;2022-12-18T16:25:26;24.50;;;15.93;;
14247;SDS011;7208;49.826;6.004;2022-12-18T16:27:53;24.33;;;16.00;;
14247;SDS011;7208;49.826;6.004;2022-12-18T16:30:27;32.93;;;15.77;;
14247;SDS011;7208;49.826;6.004;2022-12-18T16:32:56;26.47;;;17.13;;
14247;SDS011;7208;49.826;6.004;2022-12-18T16:35:24;26.80;;;17.37;;
14247;SDS011;7208;49.826;6.004;2022-12-18T16:37:51;29.80;;;16.17;;
14247;SDS011;7208;49.826;6.004;2022-12-18T16:40:17;26.10;;;15.07;;
14247;SDS011;7208;49.826;6.004;2022-12-18T16:42:44;29.70;;;16.80;;
14247;SDS011;7208;49.826;6.004;2022-12-18T16:45:11;28.90;;;17.43;;
14247;SDS011;7208;49.826;6.004;2022-12-18T16:47:39;33.40;;;18.07;;
14247;SDS011;7208;49.826;6.004;2022-12-18T16:50:06;27.87;;;15.43;;
14247;SDS011;7208;49.826;6.004;2022-12-18T16:52:32;22.93;;;14.90;;
14247;SDS011;7208;49.826;6.004;2022-12-18T16:54:58;34.43;;;16.30;;
14247;SDS011;7208;49.826;6.004;2022-12-18T16:57:24;28.00;;;17.07;;
14247;SDS011;7208;49.826;6.004;2022-12-18T16:59:49;25.07;;;15.83;;
14247;SDS011;7208;49.826;6.004;2022-12-18T17:04:48;29.40;;;15.60;;
14247;SDS011;7208;49.826;6.004;2022-12-18T17:07:14;32.67;;;16.40;;
14247;SDS011;7208;49.826;6.004;2022-12-18T17:09:40;25.20;;;15.30;;
14247;SDS011;7208;49.826;6.004;2022-12-18T17:12:06;26.33;;;15.00;;
14247;SDS011;7208;49.826;6.004;2022-12-18T17:14:33;31.33;;;16.80;;
14247;SDS011;7208;49.826;6.004;2022-12-18T17:16:59;26.03;;;15.77;;
14247;SDS011;7208;49.826;6.004;2022-12-18T17:19:25;22.70;;;14.50;;
14247;SDS011;7208;49.826;6.004;2022-12-18T17:21:51;28.57;;;16.37;;